Waco Regional Airport Waco US
ICAO: KACT
IATA: ACT
Category: Medium
Scheduled Services: Yes

Elevation: 516 ft
TransAlt. 18000 ft.

Airport Communications:
APP:135.2
ATIS:123.85
CTAF:119.3
DEP:126.125
GND:121.9
FORT WORTH RDO:122.15
TWR:119.3
UNICOM:122.95

KACT Zoom In..

If you have problems with the map follow the link
https://www.worldairports.se/pages/airport.php?
ICAO=KACT

Runways:

(A) RW 01 length 7107 ft width 150 ft
---- / hdg 7

(B) RW 14 length 5103 ft width 150 ft
---- / hdg 142

(C) RW 19 length 7107 ft width 150 ft
ILS 109.70 / hdg 187

(D) RW 32 length 5103 ft width 150 ft
---- / hdg 322

Location; KACT
Day. 13 / Time. 00.51 Zulu
* Altimeter: 30.09
* Temperature: 11° c. 51.8°f.
* Wind from: 170° Speed 07 kn.
Dewpoint: 07° c.
Visibility: 10 Statute Miles.
Clouds: Clear (automated report).

KACT 130051Z 17007KT 10SM CLR 11/07 A3009 RMK AO2 SLP188 T01110072


Wind From 170°
Speed 07 kn.

 
 
jpsmedia worldairports.se 2019   terms of use